sensor_id;sensor_type;location;lat;lon;timestamp;P1;durP1;ratioP1;P2;durP2;ratioP2
8893;SDS011;4483;48.622;9.230;2022-10-16T00:01:06;9.20;;;1.48;;
8893;SDS011;4483;48.622;9.230;2022-10-16T00:03:33;11.55;;;1.70;;
8893;SDS011;4483;48.622;9.230;2022-10-16T00:06:00;7.40;;;1.50;;
8893;SDS011;4483;48.622;9.230;2022-10-16T00:08:28;4.47;;;1.50;;
8893;SDS011;4483;48.622;9.230;2022-10-16T00:10:58;5.38;;;1.48;;
8893;SDS011;4483;48.622;9.230;2022-10-16T00:13:27;4.63;;;1.33;;
8893;SDS011;4483;48.622;9.230;2022-10-16T00:15:55;8.05;;;1.77;;
8893;SDS011;4483;48.622;9.230;2022-10-16T00:18:22;5.93;;;1.30;;
8893;SDS011;4483;48.622;9.230;2022-10-16T00:20:48;7.13;;;1.42;;
8893;SDS011;4483;48.622;9.230;2022-10-16T00:23:15;6.18;;;1.40;;
8893;SDS011;4483;48.622;9.230;2022-10-16T00:25:42;3.90;;;1.43;;
8893;SDS011;4483;48.622;9.230;2022-10-16T00:28:09;3.65;;;1.20;;
8893;SDS011;4483;48.622;9.230;2022-10-16T00:30:38;7.83;;;1.40;;
8893;SDS011;4483;48.622;9.230;2022-10-16T00:33:05;2.72;;;1.30;;
8893;SDS011;4483;48.622;9.230;2022-10-16T00:35:32;5.03;;;1.30;;
8893;SDS011;4483;48.622;9.230;2022-10-16T00:37:58;6.13;;;1.42;;
8893;SDS011;4483;48.622;9.230;2022-10-16T00:40:25;5.07;;;1.40;;
8893;SDS011;4483;48.622;9.230;2022-10-16T00:42:53;8.38;;;1.63;;
8893;SDS011;4483;48.622;9.230;2022-10-16T00:45:19;5.40;;;1.52;;
8893;SDS011;4483;48.622;9.230;2022-10-16T00:47:47;2.15;;;1.13;;
8893;SDS011;4483;48.622;9.230;2022-10-16T00:50:18;5.97;;;1.40;;
8893;SDS011;4483;48.622;9.230;2022-10-16T00:52:50;2.00;;;1.10;;
8893;SDS011;4483;48.622;9.230;2022-10-16T00:55:18;5.55;;;1.23;;
8893;SDS011;4483;48.622;9.230;2022-10-16T00:57:46;7.45;;;1.40;;
8893;SDS011;4483;48.622;9.230;2022-10-16T01:00:15;3.38;;;1.40;;
8893;SDS011;4483;48.622;9.230;2022-10-16T01:02:44;5.78;;;1.30;;
8893;SDS011;4483;48.622;9.230;2022-10-16T01:05:18;6.33;;;1.40;;
8893;SDS011;4483;48.622;9.230;2022-10-16T01:07:47;7.87;;;1.63;;
8893;SDS011;4483;48.622;9.230;2022-10-16T01:10:25;5.82;;;1.50;;
8893;SDS011;4483;48.622;9.230;2022-10-16T01:12:57;5.60;;;1.67;;
8893;SDS011;4483;48.622;9.230;2022-10-16T01:15:30;3.92;;;1.40;;
8893;SDS011;4483;48.622;9.230;2022-10-16T01:18:01;3.53;;;1.40;;
8893;SDS011;4483;48.622;9.230;2022-10-16T01:20:37;6.23;;;1.40;;
8893;SDS011;4483;48.622;9.230;2022-10-16T01:23:10;5.38;;;1.42;;
8893;SDS011;4483;48.622;9.230;2022-10-16T01:28:49;6.90;;;1.40;;
8893;SDS011;4483;48.622;9.230;2022-10-16T01:31:22;2.97;;;1.47;;
8893;SDS011;4483;48.622;9.230;2022-10-16T01:33:59;6.03;;;1.50;;
8893;SDS011;4483;48.622;9.230;2022-10-16T01:36:31;2.50;;;1.25;;
8893;SDS011;4483;48.622;9.230;2022-10-16T01:39:03;7.03;;;1.40;;
8893;SDS011;4483;48.622;9.230;2022-10-16T01:41:35;6.60;;;1.30;;
8893;SDS011;4483;48.622;9.230;2022-10-16T01:44:07;6.50;;;1.30;;
8893;SDS011;4483;48.622;9.230;2022-10-16T01:46:37;2.17;;;1.43;;
8893;SDS011;4483;48.622;9.230;2022-10-16T01:49:07;5.23;;;1.20;;
8893;SDS011;4483;48.622;9.230;2022-10-16T01:51:36;6.82;;;1.70;;
8893;SDS011;4483;48.622;9.230;2022-10-16T01:54:04;7.27;;;1.30;;
8893;SDS011;4483;48.622;9.230;2022-10-16T01:56:34;1.35;;;1.10;;
8893;SDS011;4483;48.622;9.230;2022-10-16T01:59:04;7.43;;;1.77;;
8893;SDS011;4483;48.622;9.230;2022-10-16T02:01:36;10.73;;;1.33;;
8893;SDS011;4483;48.622;9.230;2022-10-16T02:04:09;6.43;;;1.40;;
8893;SDS011;4483;48.622;9.230;2022-10-16T02:06:41;5.83;;;1.20;;
8893;SDS011;4483;48.622;9.230;2022-10-16T02:09:08;8.57;;;1.47;;
8893;SDS011;4483;48.622;9.230;2022-10-16T02:11:35;3.40;;;1.50;;
8893;SDS011;4483;48.622;9.230;2022-10-16T02:14:02;7.72;;;1.77;;
8893;SDS011;4483;48.622;9.230;2022-10-16T02:16:35;10.70;;;1.60;;
8893;SDS011;4483;48.622;9.230;2022-10-16T02:19:04;3.63;;;1.40;;
8893;SDS011;4483;48.622;9.230;2022-10-16T02:21:33;7.07;;;1.63;;
8893;SDS011;4483;48.622;9.230;2022-10-16T02:24:08;7.93;;;1.30;;
8893;SDS011;4483;48.622;9.230;2022-10-16T02:26:41;1.80;;;1.17;;
8893;SDS011;4483;48.622;9.230;2022-10-16T02:29:16;5.70;;;1.23;;
8893;SDS011;4483;48.622;9.230;2022-10-16T02:31:48;9.45;;;2.03;;
8893;SDS011;4483;48.622;9.230;2022-10-16T02:34:20;7.03;;;1.30;;
8893;SDS011;4483;48.622;9.230;2022-10-16T02:36:50;2.80;;;1.37;;
8893;SDS011;4483;48.622;9.230;2022-10-16T02:39:18;12.37;;;1.30;;
8893;SDS011;4483;48.622;9.230;2022-10-16T02:41:47;2.27;;;1.53;;
8893;SDS011;4483;48.622;9.230;2022-10-16T02:44:13;7.03;;;1.10;;
8893;SDS011;4483;48.622;9.230;2022-10-16T02:46:40;9.57;;;1.50;;
8893;SDS011;4483;48.622;9.230;2022-10-16T02:49:08;3.60;;;1.37;;
8893;SDS011;4483;48.622;9.230;2022-10-16T02:51:35;13.97;;;2.00;;
8893;SDS011;4483;48.622;9.230;2022-10-16T02:54:01;5.50;;;1.50;;
8893;SDS011;4483;48.622;9.230;2022-10-16T02:56:28;5.53;;;1.20;;
8893;SDS011;4483;48.622;9.230;2022-10-16T02:58:55;5.57;;;1.60;;
8893;SDS011;4483;48.622;9.230;2022-10-16T03:01:22;4.20;;;1.30;;
8893;SDS011;4483;48.622;9.230;2022-10-16T03:03:49;10.73;;;1.73;;
8893;SDS011;4483;48.622;9.230;2022-10-16T03:06:17;7.60;;;1.40;;
8893;SDS011;4483;48.622;9.230;2022-10-16T03:08:44;7.10;;;1.70;;
8893;SDS011;4483;48.622;9.230;2022-10-16T03:11:10;5.63;;;1.10;;
8893;SDS011;4483;48.622;9.230;2022-10-16T03:13:37;6.17;;;1.20;;
8893;SDS011;4483;48.622;9.230;2022-10-16T03:16:04;5.63;;;1.30;;
8893;SDS011;4483;48.622;9.230;2022-10-16T03:18:30;4.63;;;1.40;;
8893;SDS011;4483;48.622;9.230;2022-10-16T03:20:57;13.47;;;1.30;;
8893;SDS011;4483;48.622;9.230;2022-10-16T03:23:25;15.33;;;1.60;;
8893;SDS011;4483;48.622;9.230;2022-10-16T03:25:51;11.80;;;1.40;;
8893;SDS011;4483;48.622;9.230;2022-10-16T03:28:19;6.20;;;1.30;;
8893;SDS011;4483;48.622;9.230;2022-10-16T03:30:45;7.73;;;1.13;;
8893;SDS011;4483;48.622;9.230;2022-10-16T03:33:12;6.37;;;1.43;;
8893;SDS011;4483;48.622;9.230;2022-10-16T03:35:38;11.20;;;1.60;;
8893;SDS011;4483;48.622;9.230;2022-10-16T03:38:05;6.10;;;1.30;;
8893;SDS011;4483;48.622;9.230;2022-10-16T03:40:33;9.23;;;1.40;;
8893;SDS011;4483;48.622;9.230;2022-10-16T03:43:00;10.83;;;1.37;;
8893;SDS011;4483;48.622;9.230;2022-10-16T03:45:26;6.40;;;1.50;;
8893;SDS011;4483;48.622;9.230;2022-10-16T03:47:53;7.47;;;1.20;;
8893;SDS011;4483;48.622;9.230;2022-10-16T03:50:19;3.90;;;1.43;;
8893;SDS011;4483;48.622;9.230;2022-10-16T03:52:46;3.80;;;1.00;;
8893;SDS011;4483;48.622;9.230;2022-10-16T03:55:13;8.07;;;1.40;;
8893;SDS011;4483;48.622;9.230;2022-10-16T03:57:41;5.53;;;1.53;;
8893;SDS011;4483;48.622;9.230;2022-10-16T04:00:08;4.00;;;1.20;;
8893;SDS011;4483;48.622;9.230;2022-10-16T04:02:35;5.90;;;1.40;;
8893;SDS011;4483;48.622;9.230;2022-10-16T04:05:02;3.40;;;1.30;;
8893;SDS011;4483;48.622;9.230;2022-10-16T04:07:29;6.03;;;1.40;;
8893;SDS011;4483;48.622;9.230;2022-10-16T04:09:55;4.53;;;1.20;;
8893;SDS011;4483;48.622;9.230;2022-10-16T04:12:23;6.87;;;1.30;;
8893;SDS011;4483;48.622;9.230;2022-10-16T04:14:52;4.57;;;1.37;;
8893;SDS011;4483;48.622;9.230;2022-10-16T04:17:18;6.03;;;1.27;;
8893;SDS011;4483;48.622;9.230;2022-10-16T04:19:45;14.20;;;1.67;;
8893;SDS011;4483;48.622;9.230;2022-10-16T04:22:12;7.90;;;1.40;;
8893;SDS011;4483;48.622;9.230;2022-10-16T04:24:38;3.50;;;0.90;;
8893;SDS011;4483;48.622;9.230;2022-10-16T04:27:05;7.00;;;1.60;;
8893;SDS011;4483;48.622;9.230;2022-10-16T04:29:31;7.07;;;1.47;;
8893;SDS011;4483;48.622;9.230;2022-10-16T04:31:59;7.43;;;1.47;;
8893;SDS011;4483;48.622;9.230;2022-10-16T04:34:26;9.33;;;1.30;;
8893;SDS011;4483;48.622;9.230;2022-10-16T04:36:52;11.07;;;1.37;;
8893;SDS011;4483;48.622;9.230;2022-10-16T04:39:19;4.93;;;1.60;;
8893;SDS011;4483;48.622;9.230;2022-10-16T04:41:45;5.87;;;1.20;;
8893;SDS011;4483;48.622;9.230;2022-10-16T04:44:12;8.97;;;1.40;;
8893;SDS011;4483;48.622;9.230;2022-10-16T04:46:39;9.07;;;1.30;;
8893;SDS011;4483;48.622;9.230;2022-10-16T04:49:07;11.70;;;1.40;;
8893;SDS011;4483;48.622;9.230;2022-10-16T04:51:33;5.73;;;1.50;;
8893;SDS011;4483;48.622;9.230;2022-10-16T04:54:00;3.33;;;1.23;;
8893;SDS011;4483;48.622;9.230;2022-10-16T04:56:26;5.20;;;1.17;;
8893;SDS011;4483;48.622;9.230;2022-10-16T04:58:53;10.67;;;1.17;;
8893;SDS011;4483;48.622;9.230;2022-10-16T05:01:20;1.00;;;1.00;;
8893;SDS011;4483;48.622;9.230;2022-10-16T05:03:46;3.90;;;1.20;;
8893;SDS011;4483;48.622;9.230;2022-10-16T05:06:14;4.47;;;1.20;;
8893;SDS011;4483;48.622;9.230;2022-10-16T05:08:41;10.13;;;1.80;;
8893;SDS011;4483;48.622;9.230;2022-10-16T05:11:07;3.10;;;1.30;;
8893;SDS011;4483;48.622;9.230;2022-10-16T05:13:34;3.20;;;1.33;;
8893;SDS011;4483;48.622;9.230;2022-10-16T05:16:01;2.80;;;1.10;;
8893;SDS011;4483;48.622;9.230;2022-10-16T05:18:27;6.83;;;1.83;;
8893;SDS011;4483;48.622;9.230;2022-10-16T05:20:54;5.80;;;1.30;;
8893;SDS011;4483;48.622;9.230;2022-10-16T05:23:22;3.77;;;1.40;;
8893;SDS011;4483;48.622;9.230;2022-10-16T05:25:51;8.57;;;1.90;;
8893;SDS011;4483;48.622;9.230;2022-10-16T05:28:19;4.70;;;1.17;;
8893;SDS011;4483;48.622;9.230;2022-10-16T05:30:46;3.50;;;1.30;;
8893;SDS011;4483;48.622;9.230;2022-10-16T05:33:12;6.20;;;1.47;;
8893;SDS011;4483;48.622;9.230;2022-10-16T05:35:39;7.77;;;1.70;;
8893;SDS011;4483;48.622;9.230;2022-10-16T05:38:05;6.70;;;1.40;;
8893;SDS011;4483;48.622;9.230;2022-10-16T05:40:33;13.57;;;1.30;;
8893;SDS011;4483;48.622;9.230;2022-10-16T05:43:00;3.50;;;1.70;;
8893;SDS011;4483;48.622;9.230;2022-10-16T05:45:27;3.40;;;1.50;;
8893;SDS011;4483;48.622;9.230;2022-10-16T05:47:53;11.83;;;1.40;;
8893;SDS011;4483;48.622;9.230;2022-10-16T05:50:20;5.17;;;1.17;;
8893;SDS011;4483;48.622;9.230;2022-10-16T05:52:46;5.13;;;1.17;;
8893;SDS011;4483;48.622;9.230;2022-10-16T05:55:13;4.73;;;1.10;;
8893;SDS011;4483;48.622;9.230;2022-10-16T05:57:42;14.17;;;1.70;;
8893;SDS011;4483;48.622;9.230;2022-10-16T06:00:09;10.27;;;1.73;;
8893;SDS011;4483;48.622;9.230;2022-10-16T06:02:36;6.40;;;1.60;;
8893;SDS011;4483;48.622;9.230;2022-10-16T06:05:03;7.57;;;1.50;;
8893;SDS011;4483;48.622;9.230;2022-10-16T06:07:33;4.23;;;1.30;;
8893;SDS011;4483;48.622;9.230;2022-10-16T06:10:00;7.97;;;1.53;;
8893;SDS011;4483;48.622;9.230;2022-10-16T06:12:26;7.90;;;1.47;;
8893;SDS011;4483;48.622;9.230;2022-10-16T06:14:54;9.03;;;1.40;;
8893;SDS011;4483;48.622;9.230;2022-10-16T06:17:21;2.70;;;1.20;;
8893;SDS011;4483;48.622;9.230;2022-10-16T06:19:48;5.23;;;1.37;;
8893;SDS011;4483;48.622;9.230;2022-10-16T06:22:14;7.00;;;1.60;;
8893;SDS011;4483;48.622;9.230;2022-10-16T06:24:41;6.03;;;1.40;;
8893;SDS011;4483;48.622;9.230;2022-10-16T06:27:07;8.53;;;1.50;;
8893;SDS011;4483;48.622;9.230;2022-10-16T06:29:34;8.50;;;1.37;;
8893;SDS011;4483;48.622;9.230;2022-10-16T06:32:02;5.07;;;1.60;;
8893;SDS011;4483;48.622;9.230;2022-10-16T06:34:29;6.77;;;1.23;;
8893;SDS011;4483;48.622;9.230;2022-10-16T06:36:55;5.43;;;1.80;;
8893;SDS011;4483;48.622;9.230;2022-10-16T06:39:22;3.75;;;1.38;;
8893;SDS011;4483;48.622;9.230;2022-10-16T06:41:49;6.33;;;1.40;;
8893;SDS011;4483;48.622;9.230;2022-10-16T06:44:15;2.43;;;1.47;;
8893;SDS011;4483;48.622;9.230;2022-10-16T06:46:42;3.38;;;1.27;;
8893;SDS011;4483;48.622;9.230;2022-10-16T06:49:10;7.60;;;1.48;;
8893;SDS011;4483;48.622;9.230;2022-10-16T06:51:36;5.90;;;1.17;;
8893;SDS011;4483;48.622;9.230;2022-10-16T06:54:06;7.72;;;1.63;;
8893;SDS011;4483;48.622;9.230;2022-10-16T06:56:33;8.35;;;1.38;;
8893;SDS011;4483;48.622;9.230;2022-10-16T06:59:00;5.30;;;1.30;;
8893;SDS011;4483;48.622;9.230;2022-10-16T07:01:27;5.93;;;1.37;;
8893;SDS011;4483;48.622;9.230;2022-10-16T07:03:54;4.65;;;1.35;;
8893;SDS011;4483;48.622;9.230;2022-10-16T07:06:24;3.90;;;1.57;;
8893;SDS011;4483;48.622;9.230;2022-10-16T07:08:51;4.45;;;1.38;;
8893;SDS011;4483;48.622;9.230;2022-10-16T07:11:19;4.90;;;1.23;;
8893;SDS011;4483;48.622;9.230;2022-10-16T07:13:47;10.00;;;1.35;;
8893;SDS011;4483;48.622;9.230;2022-10-16T07:16:15;2.90;;;1.17;;
8893;SDS011;4483;48.622;9.230;2022-10-16T07:18:43;1.23;;;1.00;;
8893;SDS011;4483;48.622;9.230;2022-10-16T07:21:12;3.13;;;1.38;;
8893;SDS011;4483;48.622;9.230;2022-10-16T07:23:41;7.83;;;1.50;;
8893;SDS011;4483;48.622;9.230;2022-10-16T07:26:08;5.13;;;1.30;;
8893;SDS011;4483;48.622;9.230;2022-10-16T07:28:35;2.92;;;1.40;;
8893;SDS011;4483;48.622;9.230;2022-10-16T07:31:03;8.80;;;1.47;;
8893;SDS011;4483;48.622;9.230;2022-10-16T07:33:32;4.97;;;1.63;;
8893;SDS011;4483;48.622;9.230;2022-10-16T07:36:00;3.10;;;1.30;;
8893;SDS011;4483;48.622;9.230;2022-10-16T07:38:26;4.43;;;1.17;;
8893;SDS011;4483;48.622;9.230;2022-10-16T07:40:58;10.00;;;1.30;;
8893;SDS011;4483;48.622;9.230;2022-10-16T07:43:26;7.20;;;1.30;;
8893;SDS011;4483;48.622;9.230;2022-10-16T07:45:53;4.55;;;1.30;;
8893;SDS011;4483;48.622;9.230;2022-10-16T07:48:21;1.33;;;1.23;;
8893;SDS011;4483;48.622;9.230;2022-10-16T07:50:48;3.40;;;1.35;;
8893;SDS011;4483;48.622;9.230;2022-10-16T07:53:15;4.67;;;1.53;;
8893;SDS011;4483;48.622;9.230;2022-10-16T07:55:42;2.70;;;1.58;;
8893;SDS011;4483;48.622;9.230;2022-10-16T07:58:10;4.30;;;1.63;;
8893;SDS011;4483;48.622;9.230;2022-10-16T08:00:37;5.35;;;1.52;;
8893;SDS011;4483;48.622;9.230;2022-10-16T08:03:03;3.38;;;1.58;;
8893;SDS011;4483;48.622;9.230;2022-10-16T08:05:31;2.47;;;1.55;;
8893;SDS011;4483;48.622;9.230;2022-10-16T08:07:59;7.28;;;1.55;;
8893;SDS011;4483;48.622;9.230;2022-10-16T08:10:26;5.43;;;1.77;;
8893;SDS011;4483;48.622;9.230;2022-10-16T08:12:53;5.22;;;1.60;;
8893;SDS011;4483;48.622;9.230;2022-10-16T08:15:22;4.53;;;1.63;;
8893;SDS011;4483;48.622;9.230;2022-10-16T08:17:55;10.20;;;1.90;;
8893;SDS011;4483;48.622;9.230;2022-10-16T08:20:22;8.77;;;2.15;;
8893;SDS011;4483;48.622;9.230;2022-10-16T08:22:49;9.27;;;2.28;;
8893;SDS011;4483;48.622;9.230;2022-10-16T08:25:16;4.38;;;1.38;;
8893;SDS011;4483;48.622;9.230;2022-10-16T08:27:42;3.55;;;1.42;;
8893;SDS011;4483;48.622;9.230;2022-10-16T08:30:10;2.20;;;1.65;;
8893;SDS011;4483;48.622;9.230;2022-10-16T08:32:38;4.97;;;1.63;;
8893;SDS011;4483;48.622;9.230;2022-10-16T08:35:06;1.87;;;1.57;;
8893;SDS011;4483;48.622;9.230;2022-10-16T08:37:34;1.30;;;1.30;;
8893;SDS011;4483;48.622;9.230;2022-10-16T08:40:01;7.78;;;1.83;;
8893;SDS011;4483;48.622;9.230;2022-10-16T08:42:40;6.93;;;1.40;;
8893;SDS011;4483;48.622;9.230;2022-10-16T08:48:20;6.47;;;1.52;;
8893;SDS011;4483;48.622;9.230;2022-10-16T08:50:51;5.28;;;1.40;;
8893;SDS011;4483;48.622;9.230;2022-10-16T08:53:19;1.50;;;1.23;;
8893;SDS011;4483;48.622;9.230;2022-10-16T08:55:50;4.45;;;2.13;;
8893;SDS011;4483;48.622;9.230;2022-10-16T08:58:18;4.03;;;1.30;;
8893;SDS011;4483;48.622;9.230;2022-10-16T09:00:47;2.22;;;1.20;;
8893;SDS011;4483;48.622;9.230;2022-10-16T09:03:32;8.77;;;1.40;;
8893;SDS011;4483;48.622;9.230;2022-10-16T09:06:29;5.85;;;1.33;;
8893;SDS011;4483;48.622;9.230;2022-10-16T09:09:09;6.88;;;2.15;;
8893;SDS011;4483;48.622;9.230;2022-10-16T09:11:58;1.73;;;1.60;;
8893;SDS011;4483;48.622;9.230;2022-10-16T09:14:40;2.63;;;1.98;;
8893;SDS011;4483;48.622;9.230;2022-10-16T09:17:22;8.57;;;2.70;;
8893;SDS011;4483;48.622;9.230;2022-10-16T09:20:18;5.82;;;2.00;;
8893;SDS011;4483;48.622;9.230;2022-10-16T09:22:50;5.75;;;2.00;;
8893;SDS011;4483;48.622;9.230;2022-10-16T09:25:21;2.28;;;1.75;;
8893;SDS011;4483;48.622;9.230;2022-10-16T09:27:48;3.85;;;1.60;;
8893;SDS011;4483;48.622;9.230;2022-10-16T09:30:20;2.88;;;1.45;;
8893;SDS011;4483;48.622;9.230;2022-10-16T09:32:48;2.40;;;1.27;;
8893;SDS011;4483;48.622;9.230;2022-10-16T09:35:19;3.65;;;1.45;;
8893;SDS011;4483;48.622;9.230;2022-10-16T09:37:49;5.53;;;1.40;;
8893;SDS011;4483;48.622;9.230;2022-10-16T09:40:26;3.13;;;1.10;;
8893;SDS011;4483;48.622;9.230;2022-10-16T09:42:56;1.08;;;0.98;;
8893;SDS011;4483;48.622;9.230;2022-10-16T09:45:27;11.00;;;1.50;;
8893;SDS011;4483;48.622;9.230;2022-10-16T09:47:53;2.25;;;1.10;;
8893;SDS011;4483;48.622;9.230;2022-10-16T09:50:22;2.83;;;1.15;;
8893;SDS011;4483;48.622;9.230;2022-10-16T09:53:02;5.35;;;1.13;;
8893;SDS011;4483;48.622;9.230;2022-10-16T09:55:29;1.40;;;1.30;;
8893;SDS011;4483;48.622;9.230;2022-10-16T09:57:56;1.20;;;1.20;;
8893;SDS011;4483;48.622;9.230;2022-10-16T10:00:23;4.68;;;1.23;;
8893;SDS011;4483;48.622;9.230;2022-10-16T10:02:50;2.67;;;1.20;;
8893;SDS011;4483;48.622;9.230;2022-10-16T10:05:19;1.35;;;1.25;;
8893;SDS011;4483;48.622;9.230;2022-10-16T10:07:53;4.82;;;1.80;;
8893;SDS011;4483;48.622;9.230;2022-10-16T10:10:23;3.97;;;1.27;;
8893;SDS011;4483;48.622;9.230;2022-10-16T10:12:51;6.38;;;1.20;;
8893;SDS011;4483;48.622;9.230;2022-10-16T10:15:19;1.95;;;1.08;;
8893;SDS011;4483;48.622;9.230;2022-10-16T10:17:47;2.42;;;0.93;;
8893;SDS011;4483;48.622;9.230;2022-10-16T10:20:21;3.75;;;1.20;;
8893;SDS011;4483;48.622;9.230;2022-10-16T10:22:52;3.70;;;1.38;;
8893;SDS011;4483;48.622;9.230;2022-10-16T10:25:26;1.33;;;1.20;;
8893;SDS011;4483;48.622;9.230;2022-10-16T10:28:06;1.33;;;1.23;;
8893;SDS011;4483;48.622;9.230;2022-10-16T10:30:49;3.92;;;1.20;;
8893;SDS011;4483;48.622;9.230;2022-10-16T10:33:24;3.17;;;1.27;;
8893;SDS011;4483;48.622;9.230;2022-10-16T10:36:01;1.60;;;1.30;;
8893;SDS011;4483;48.622;9.230;2022-10-16T10:38:39;1.92;;;1.15;;
8893;SDS011;4483;48.622;9.230;2022-10-16T10:41:20;2.38;;;0.95;;
8893;SDS011;4483;48.622;9.230;2022-10-16T10:44:03;5.60;;;1.17;;
8893;SDS011;4483;48.622;9.230;2022-10-16T10:46:39;1.10;;;1.10;;
8893;SDS011;4483;48.622;9.230;2022-10-16T10:49:13;6.60;;;1.20;;
8893;SDS011;4483;48.622;9.230;2022-10-16T10:51:56;2.88;;;1.20;;
8893;SDS011;4483;48.622;9.230;2022-10-16T10:54:35;3.47;;;1.60;;
8893;SDS011;4483;48.622;9.230;2022-10-16T10:57:09;4.25;;;1.13;;
8893;SDS011;4483;48.622;9.230;2022-10-16T10:59:48;3.58;;;1.33;;
8893;SDS011;4483;48.622;9.230;2022-10-16T11:02:32;5.00;;;1.20;;
8893;SDS011;4483;48.622;9.230;2022-10-16T11:05:16;2.45;;;1.23;;
8893;SDS011;4483;48.622;9.230;2022-10-16T11:08:13;1.33;;;1.20;;
8893;SDS011;4483;48.622;9.230;2022-10-16T11:10:45;3.70;;;1.35;;
8893;SDS011;4483;48.622;9.230;2022-10-16T11:13:26;3.17;;;1.10;;
8893;SDS011;4483;48.622;9.230;2022-10-16T11:15:58;1.00;;;1.00;;
8893;SDS011;4483;48.622;9.230;2022-10-16T11:18:30;2.25;;;1.20;;
8893;SDS011;4483;48.622;9.230;2022-10-16T11:21:04;2.03;;;1.48;;
8893;SDS011;4483;48.622;9.230;2022-10-16T11:23:35;2.15;;;1.10;;
8893;SDS011;4483;48.622;9.230;2022-10-16T11:26:09;1.42;;;1.17;;
8893;SDS011;4483;48.622;9.230;2022-10-16T11:28:41;1.05;;;1.02;;
8893;SDS011;4483;48.622;9.230;2022-10-16T11:31:13;1.80;;;1.10;;
8893;SDS011;4483;48.622;9.230;2022-10-16T11:33:45;2.97;;;1.45;;
8893;SDS011;4483;48.622;9.230;2022-10-16T11:36:16;1.52;;;1.27;;
8893;SDS011;4483;48.622;9.230;2022-10-16T11:38:51;2.83;;;1.38;;
8893;SDS011;4483;48.622;9.230;2022-10-16T11:41:24;3.00;;;0.90;;
8893;SDS011;4483;48.622;9.230;2022-10-16T11:44:06;9.45;;;1.20;;
8893;SDS011;4483;48.622;9.230;2022-10-16T11:46:44;4.28;;;1.20;;
8893;SDS011;4483;48.622;9.230;2022-10-16T11:49:18;1.40;;;1.30;;
8893;SDS011;4483;48.622;9.230;2022-10-16T11:51:48;1.85;;;1.33;;
8893;SDS011;4483;48.622;9.230;2022-10-16T11:54:24;3.38;;;1.17;;
8893;SDS011;4483;48.622;9.230;2022-10-16T11:56:57;2.03;;;1.00;;
8893;SDS011;4483;48.622;9.230;2022-10-16T11:59:30;2.95;;;1.30;;
8893;SDS011;4483;48.622;9.230;2022-10-16T12:02:12;4.97;;;1.05;;
8893;SDS011;4483;48.622;9.230;2022-10-16T12:05:00;1.83;;;1.08;;
8893;SDS011;4483;48.622;9.230;2022-10-16T12:07:38;1.10;;;1.10;;
8893;SDS011;4483;48.622;9.230;2022-10-16T12:10:20;3.42;;;1.27;;
8893;SDS011;4483;48.622;9.230;2022-10-16T12:12:49;1.35;;;1.23;;
8893;SDS011;4483;48.622;9.230;2022-10-16T12:15:21;1.35;;;1.23;;
8893;SDS011;4483;48.622;9.230;2022-10-16T12:17:49;3.38;;;1.33;;
8893;SDS011;4483;48.622;9.230;2022-10-16T12:20:25;1.35;;;1.20;;
8893;SDS011;4483;48.622;9.230;2022-10-16T12:22:55;2.72;;;1.20;;
8893;SDS011;4483;48.622;9.230;2022-10-16T12:25:28;1.40;;;1.15;;
8893;SDS011;4483;48.622;9.230;2022-10-16T12:27:57;6.95;;;1.45;;
8893;SDS011;4483;48.622;9.230;2022-10-16T12:30:33;3.25;;;1.38;;
8893;SDS011;4483;48.622;9.230;2022-10-16T12:33:03;1.38;;;1.27;;
8893;SDS011;4483;48.622;9.230;2022-10-16T12:35:32;2.00;;;1.30;;
8893;SDS011;4483;48.622;9.230;2022-10-16T12:38:08;3.53;;;1.20;;
8893;SDS011;4483;48.622;9.230;2022-10-16T12:40:43;5.90;;;1.50;;
8893;SDS011;4483;48.622;9.230;2022-10-16T12:43:13;1.10;;;1.10;;
8893;SDS011;4483;48.622;9.230;2022-10-16T12:46:02;2.47;;;1.13;;
8893;SDS011;4483;48.622;9.230;2022-10-16T12:48:30;4.72;;;1.30;;
8893;SDS011;4483;48.622;9.230;2022-10-16T12:50:57;1.58;;;1.48;;
8893;SDS011;4483;48.622;9.230;2022-10-16T12:53:36;4.25;;;1.20;;
8893;SDS011;4483;48.622;9.230;2022-10-16T12:56:08;1.48;;;1.23;;
8893;SDS011;4483;48.622;9.230;2022-10-16T12:58:43;4.88;;;1.20;;
8893;SDS011;4483;48.622;9.230;2022-10-16T13:01:22;3.50;;;1.40;;
8893;SDS011;4483;48.622;9.230;2022-10-16T13:06:49;1.13;;;1.10;;
8893;SDS011;4483;48.622;9.230;2022-10-16T13:09:30;1.30;;;1.20;;
8893;SDS011;4483;48.622;9.230;2022-10-16T13:12:18;3.60;;;1.27;;
8893;SDS011;4483;48.622;9.230;2022-10-16T13:15:01;2.72;;;1.30;;
8893;SDS011;4483;48.622;9.230;2022-10-16T13:17:39;2.10;;;1.20;;
8893;SDS011;4483;48.622;9.230;2022-10-16T13:20:16;2.78;;;1.33;;
8893;SDS011;4483;48.622;9.230;2022-10-16T13:22:51;1.10;;;1.10;;
8893;SDS011;4483;48.622;9.230;2022-10-16T13:25:28;4.65;;;1.20;;
8893;SDS011;4483;48.622;9.230;2022-10-16T13:28:08;1.10;;;1.10;;
8893;SDS011;4483;48.622;9.230;2022-10-16T13:30:38;1.35;;;1.30;;
8893;SDS011;4483;48.622;9.230;2022-10-16T13:33:10;1.05;;;1.05;;
8893;SDS011;4483;48.622;9.230;2022-10-16T13:35:46;4.03;;;1.55;;
8893;SDS011;4483;48.622;9.230;2022-10-16T13:38:15;1.25;;;1.25;;
8893;SDS011;4483;48.622;9.230;2022-10-16T13:40:50;3.58;;;1.42;;
8893;SDS011;4483;48.622;9.230;2022-10-16T13:43:20;4.53;;;2.00;;
8893;SDS011;4483;48.622;9.230;2022-10-16T13:45:58;1.45;;;1.15;;
8893;SDS011;4483;48.622;9.230;2022-10-16T13:48:27;6.05;;;1.30;;
8893;SDS011;4483;48.622;9.230;2022-10-16T13:51:00;4.47;;;1.35;;
8893;SDS011;4483;48.622;9.230;2022-10-16T13:53:32;1.83;;;1.50;;
8893;SDS011;4483;48.622;9.230;2022-10-16T13:56:01;2.20;;;1.40;;
8893;SDS011;4483;48.622;9.230;2022-10-16T13:58:31;7.82;;;1.80;;
8893;SDS011;4483;48.622;9.230;2022-10-16T14:00:59;5.45;;;2.00;;
8893;SDS011;4483;48.622;9.230;2022-10-16T14:03:27;6.63;;;2.00;;
8893;SDS011;4483;48.622;9.230;2022-10-16T14:05:56;3.70;;;1.58;;
8893;SDS011;4483;48.622;9.230;2022-10-16T14:08:25;22.05;;;4.22;;
8893;SDS011;4483;48.622;9.230;2022-10-16T14:10:54;25.55;;;8.40;;
8893;SDS011;4483;48.622;9.230;2022-10-16T14:13:28;15.55;;;5.10;;
8893;SDS011;4483;48.622;9.230;2022-10-16T14:16:00;3.58;;;1.70;;
8893;SDS011;4483;48.622;9.230;2022-10-16T14:18:31;7.38;;;3.33;;
8893;SDS011;4483;48.622;9.230;2022-10-16T14:21:02;4.93;;;2.50;;
8893;SDS011;4483;48.622;9.230;2022-10-16T14:23:30;7.90;;;4.00;;
8893;SDS011;4483;48.622;9.230;2022-10-16T14:26:13;6.95;;;1.70;;
8893;SDS011;4483;48.622;9.230;2022-10-16T14:28:41;9.40;;;4.28;;
8893;SDS011;4483;48.622;9.230;2022-10-16T14:31:22;11.80;;;3.80;;
8893;SDS011;4483;48.622;9.230;2022-10-16T14:33:52;3.47;;;2.25;;
8893;SDS011;4483;48.622;9.230;2022-10-16T14:36:18;10.95;;;3.78;;
8893;SDS011;4483;48.622;9.230;2022-10-16T14:38:48;6.50;;;1.63;;
8893;SDS011;4483;48.622;9.230;2022-10-16T14:41:24;9.40;;;2.13;;
8893;SDS011;4483;48.622;9.230;2022-10-16T14:43:51;11.45;;;2.90;;
8893;SDS011;4483;48.622;9.230;2022-10-16T14:46:22;4.20;;;2.72;;
8893;SDS011;4483;48.622;9.230;2022-10-16T14:48:59;5.03;;;2.10;;
8893;SDS011;4483;48.622;9.230;2022-10-16T14:51:28;6.68;;;1.90;;
8893;SDS011;4483;48.622;9.230;2022-10-16T14:53:55;6.00;;;1.60;;
8893;SDS011;4483;48.622;9.230;2022-10-16T14:56:22;6.72;;;1.48;;
8893;SDS011;4483;48.622;9.230;2022-10-16T14:58:51;2.40;;;1.42;;
8893;SDS011;4483;48.622;9.230;2022-10-16T15:01:19;3.45;;;1.60;;
8893;SDS011;4483;48.622;9.230;2022-10-16T15:03:47;11.20;;;1.60;;
8893;SDS011;4483;48.622;9.230;2022-10-16T15:06:15;2.58;;;2.00;;
8893;SDS011;4483;48.622;9.230;2022-10-16T15:08:41;3.83;;;1.50;;
8893;SDS011;4483;48.622;9.230;2022-10-16T15:11:09;4.72;;;1.48;;
8893;SDS011;4483;48.622;9.230;2022-10-16T15:13:39;8.85;;;1.60;;
8893;SDS011;4483;48.622;9.230;2022-10-16T15:16:07;5.32;;;1.73;;
8893;SDS011;4483;48.622;9.230;2022-10-16T15:18:36;3.90;;;1.70;;
8893;SDS011;4483;48.622;9.230;2022-10-16T15:21:04;6.57;;;1.58;;
8893;SDS011;4483;48.622;9.230;2022-10-16T15:23:31;7.90;;;4.22;;
8893;SDS011;4483;48.622;9.230;2022-10-16T15:25:58;15.88;;;3.88;;
8893;SDS011;4483;48.622;9.230;2022-10-16T15:28:25;15.35;;;4.57;;
8893;SDS011;4483;48.622;9.230;2022-10-16T15:30:53;12.48;;;4.25;;
8893;SDS011;4483;48.622;9.230;2022-10-16T15:33:21;4.78;;;2.15;;
8893;SDS011;4483;48.622;9.230;2022-10-16T15:35:50;6.95;;;1.92;;
8893;SDS011;4483;48.622;9.230;2022-10-16T15:38:19;8.15;;;2.13;;
8893;SDS011;4483;48.622;9.230;2022-10-16T15:40:48;5.90;;;1.95;;
8893;SDS011;4483;48.622;9.230;2022-10-16T15:43:15;10.88;;;5.03;;